Terminal Aerodrome Forecast
Issued by NWS

Home | Current Version | Previous Version | Text Only | Print | Product List | Glossary On
Versions: 1 2 3 4 5 6 7 8 9 10 11 12
000
FTUS46 KHNX 061129
TAFMCE
TAF
KMCE 061129Z 0612/0712 31007KT P6SM SKC
     FM061800 33013G19KT P6SM SKC
     FM070800 32010KT P6SM SKC=

USA.gov is the U.S. government's official web portal to all federal, state and local government web resources and services.